createdAt,value
2023-03-01T00:00:01.788Z,18.30
2023-03-01T00:01:06.321Z,18.13
2023-03-01T00:02:08.721Z,17.93
2023-03-01T00:03:10.997Z,17.93
2023-03-01T00:04:13.340Z,18.10
2023-03-01T00:05:15.532Z,18.80
2023-03-01T00:06:17.961Z,18.57
2023-03-01T00:07:20.231Z,18.07
2023-03-01T00:08:22.437Z,18.13
2023-03-01T00:09:24.718Z,18.50
2023-03-01T00:10:27.715Z,17.10
2023-03-01T00:11:34.629Z,17.10
2023-03-01T00:12:37.644Z,17.10
2023-03-01T00:13:40.265Z,17.30
2023-03-01T00:14:42.451Z,17.40
2023-03-01T00:15:45.548Z,17.53
2023-03-01T00:16:47.910Z,17.33
2023-03-01T00:17:50.056Z,16.27
2023-03-01T00:18:52.406Z,16.80
2023-03-01T00:19:54.568Z,16.93
2023-03-01T00:20:57.287Z,15.93
2023-03-01T00:21:59.587Z,17.13
2023-03-01T00:23:01.840Z,16.53
2023-03-01T00:24:06.769Z,16.77
2023-03-01T00:25:09.235Z,17.00
2023-03-01T00:26:14.996Z,17.17
2023-03-01T00:27:17.530Z,17.03
2023-03-01T00:28:20.372Z,17.27
2023-03-01T00:29:24.544Z,16.97
2023-03-01T00:30:27.438Z,16.20
2023-03-01T00:31:33.563Z,17.60
2023-03-01T00:32:35.826Z,16.73
2023-03-01T00:33:38.418Z,18.30
2023-03-01T00:34:41.022Z,17.30
2023-03-01T00:35:43.467Z,16.63
2023-03-01T00:36:46.275Z,17.33
2023-03-01T00:37:58.974Z,17.03
2023-03-01T00:39:02.936Z,16.38
2023-03-01T00:40:07.302Z,16.33
2023-03-01T00:41:13.107Z,15.93
2023-03-01T00:42:15.387Z,16.20
2023-03-01T00:43:17.933Z,16.03
2023-03-01T00:44:20.138Z,16.80
2023-03-01T00:45:23.025Z,17.27
2023-03-01T00:46:28.036Z,16.73
2023-03-01T00:47:30.733Z,16.60
2023-03-01T00:48:33.274Z,16.07
2023-03-01T00:49:36.854Z,16.37
2023-03-01T00:50:39.153Z,16.70
2023-03-01T00:51:42.539Z,15.90
2023-03-01T00:52:44.979Z,15.73
2023-03-01T00:53:47.529Z,15.88
2023-03-01T00:54:51.059Z,16.30
2023-03-01T00:55:53.198Z,16.13
2023-03-01T00:56:55.387Z,16.17
2023-03-01T00:57:57.632Z,15.87
2023-03-01T00:58:59.880Z,16.93
2023-03-01T01:00:02.158Z,17.60
2023-03-01T01:01:18.420Z,16.88
2023-03-01T01:02:21.407Z,16.05
2023-03-01T01:03:26.201Z,16.10
2023-03-01T01:04:28.819Z,15.35
2023-03-01T01:05:31.887Z,15.57
2023-03-01T01:06:43.938Z,16.83
2023-03-01T01:07:46.142Z,16.05
2023-03-01T01:08:49.534Z,16.25
2023-03-01T01:09:52.068Z,15.60
2023-03-01T01:10:55.709Z,16.23
2023-03-01T01:11:57.953Z,15.90
2023-03-01T01:13:02.764Z,16.30
2023-03-01T01:14:05.017Z,16.48
2023-03-01T01:15:07.781Z,15.60
2023-03-01T01:16:10.343Z,16.27
2023-03-01T01:17:13.708Z,15.63
2023-03-01T01:18:16.453Z,15.55
2023-03-01T01:19:18.650Z,15.55
2023-03-01T01:20:20.807Z,15.50
2023-03-01T01:21:26.140Z,15.77
2023-03-01T01:22:28.962Z,15.02
2023-03-01T01:23:32.554Z,15.88
2023-03-01T01:24:34.796Z,16.83
2023-03-01T01:25:37.966Z,16.48
2023-03-01T01:26:40.137Z,16.85
2023-03-01T01:27:42.325Z,16.00
2023-03-01T01:28:45.248Z,16.27
2023-03-01T01:29:48.547Z,16.65
2023-03-01T01:30:50.740Z,16.25
2023-03-01T01:31:53.079Z,16.40
2023-03-01T01:32:56.018Z,15.88
2023-03-01T01:34:00.538Z,16.15
2023-03-01T01:35:02.792Z,16.08
2023-03-01T01:36:06.642Z,16.38
2023-03-01T01:37:10.204Z,16.10
2023-03-01T01:38:12.521Z,16.25
2023-03-01T01:39:14.746Z,16.02
2023-03-01T01:40:19.602Z,15.90
2023-03-01T01:41:23.370Z,15.82
2023-03-01T01:42:25.627Z,15.77
2023-03-01T01:43:32.501Z,16.08
2023-03-01T01:44:34.950Z,15.57
2023-03-01T01:45:37.755Z,15.88
2023-03-01T01:47:05.147Z,15.65
2023-03-01T01:48:41.354Z,15.77
2023-03-01T01:49:48.569Z,15.80
2023-03-01T01:51:03.908Z,15.13
2023-03-01T01:52:10.647Z,15.15
2023-03-01T01:53:17.491Z,15.60
2023-03-01T01:54:25.032Z,15.55
2023-03-01T01:55:31.653Z,15.68
2023-03-01T01:56:38.085Z,15.70
2023-03-01T01:57:48.465Z,15.55
2023-03-01T01:58:51.365Z,15.32
2023-03-01T01:59:59.247Z,14.60
2023-03-01T02:01:02.773Z,15.68
2023-03-01T02:02:06.469Z,15.63
2023-03-01T02:03:18.490Z,16.27
2023-03-01T02:04:22.072Z,15.60
2023-03-01T02:05:36.384Z,15.18
2023-03-01T02:06:45.885Z,15.35
2023-03-01T02:07:49.373Z,15.63
2023-03-01T02:09:03.042Z,16.15
2023-03-01T02:10:06.199Z,15.23
2023-03-01T02:11:09.868Z,15.38
2023-03-01T02:12:13.904Z,16.20
2023-03-01T02:13:16.572Z,15.57
2023-03-01T02:14:19.469Z,16.23
2023-03-01T02:15:21.691Z,16.85
2023-03-01T02:16:24.708Z,16.38
2023-03-01T02:17:28.112Z,15.23
2023-03-01T02:18:30.809Z,15.90
2023-03-01T02:20:02.311Z,15.38
2023-03-01T02:21:39.551Z,15.47
2023-03-01T02:22:46.106Z,14.55
2023-03-01T02:23:48.465Z,15.30
2023-03-01T02:25:09.818Z,15.55
2023-03-01T02:26:43.878Z,15.50
2023-03-01T02:28:19.471Z,15.23
2023-03-01T02:29:24.150Z,14.77
2023-03-01T02:30:26.920Z,15.18
2023-03-01T02:31:44.105Z,15.40
2023-03-01T02:32:49.448Z,16.30
2023-03-01T02:33:54.226Z,15.50
2023-03-01T02:34:57.452Z,15.45
2023-03-01T02:36:09.451Z,15.38
2023-03-01T02:37:21.638Z,14.82
2023-03-01T02:38:24.912Z,15.65
2023-03-01T02:39:38.057Z,15.82
2023-03-01T02:40:41.858Z,15.10
2023-03-01T02:41:49.036Z,15.45
2023-03-01T02:42:55.736Z,15.20
2023-03-01T02:43:58.128Z,15.35
2023-03-01T02:45:00.330Z,15.00
2023-03-01T02:46:15.726Z,15.13
2023-03-01T02:47:18.436Z,15.57
2023-03-01T02:48:21.152Z,14.85
2023-03-01T02:49:31.623Z,15.25
2023-03-01T02:51:06.986Z,15.02
2023-03-01T02:52:51.011Z,14.13
2023-03-01T02:54:29.291Z,14.83
2023-03-01T02:55:31.598Z,14.25
2023-03-01T02:56:33.983Z,16.02
2023-03-01T02:57:39.442Z,15.65
2023-03-01T02:58:46.770Z,15.70
2023-03-01T02:59:52.466Z,14.82
2023-03-01T03:00:55.107Z,15.02
2023-03-01T03:01:57.877Z,14.82
2023-03-01T03:03:00.443Z,15.10
2023-03-01T03:04:08.591Z,16.05
2023-03-01T03:05:15.045Z,15.13
2023-03-01T03:06:17.722Z,15.18
2023-03-01T03:07:20.146Z,16.15
2023-03-01T03:08:27.457Z,15.30
2023-03-01T03:09:29.676Z,15.32
2023-03-01T03:10:36.453Z,15.23
2023-03-01T03:11:41.982Z,15.15
2023-03-01T03:12:44.377Z,15.10
2023-03-01T03:13:49.196Z,14.80
2023-03-01T03:14:52.248Z,15.18
2023-03-01T03:15:57.024Z,15.65
2023-03-01T03:16:59.346Z,15.63
2023-03-01T03:18:01.627Z,15.68
2023-03-01T03:19:06.389Z,14.68
2023-03-01T03:20:13.661Z,14.63
2023-03-01T03:21:16.402Z,14.80
2023-03-01T03:22:18.712Z,15.82
2023-03-01T03:23:22.524Z,14.82
2023-03-01T03:24:24.747Z,16.05
2023-03-01T03:25:28.603Z,14.80
2023-03-01T03:26:31.340Z,15.20
2023-03-01T03:27:33.655Z,15.07
2023-03-01T03:28:36.378Z,15.00
2023-03-01T03:29:38.576Z,15.48
2023-03-01T03:30:41.967Z,14.85
2023-03-01T03:31:44.250Z,14.40
2023-03-01T03:32:53.388Z,14.85
2023-03-01T03:33:55.804Z,14.30
2023-03-01T03:34:57.935Z,14.45
2023-03-01T03:36:00.217Z,15.18
2023-03-01T03:37:02.419Z,14.85
2023-03-01T03:38:12.617Z,15.77
2023-03-01T03:39:14.792Z,15.00
2023-03-01T03:40:18.442Z,14.48
2023-03-01T03:41:21.421Z,13.85
2023-03-01T03:42:24.833Z,15.13
2023-03-01T03:43:27.038Z,14.80
2023-03-01T03:44:29.438Z,14.40
2023-03-01T03:45:34.603Z,14.30
2023-03-01T03:46:38.673Z,14.98
2023-03-01T03:47:40.789Z,14.90
2023-03-01T03:48:45.311Z,15.02
2023-03-01T03:49:47.531Z,15.05
2023-03-01T03:50:56.349Z,14.60
2023-03-01T03:51:58.599Z,15.05
2023-03-01T03:53:05.760Z,14.65
2023-03-01T03:54:07.963Z,15.38
2023-03-01T03:55:12.858Z,15.13
2023-03-01T03:56:16.408Z,14.48
2023-03-01T03:57:18.629Z,14.88
2023-03-01T03:58:23.277Z,14.82
2023-03-01T03:59:25.573Z,14.52
2023-03-01T04:00:27.830Z,14.82
2023-03-01T04:01:30.056Z,14.65
2023-03-01T04:02:32.704Z,15.23
2023-03-01T04:03:36.309Z,15.57
2023-03-01T04:04:38.585Z,14.70
2023-03-01T04:05:41.916Z,14.15
2023-03-01T04:06:44.098Z,14.85
2023-03-01T04:07:46.712Z,15.02
2023-03-01T04:08:52.166Z,14.25
2023-03-01T04:09:54.306Z,15.30
2023-03-01T04:11:21.778Z,15.55
2023-03-01T04:12:24.235Z,14.27
2023-03-01T04:13:26.587Z,14.82
2023-03-01T04:14:28.836Z,15.35
2023-03-01T04:15:32.028Z,15.10
2023-03-01T04:16:34.462Z,14.82
2023-03-01T04:17:39.849Z,14.93
2023-03-01T04:18:42.087Z,15.20
2023-03-01T04:19:45.178Z,14.88
2023-03-01T04:20:49.633Z,14.90
2023-03-01T04:21:53.169Z,14.63
2023-03-01T04:23:21.238Z,14.63
2023-03-01T04:24:24.024Z,14.82
2023-03-01T04:25:26.551Z,14.43
2023-03-01T04:26:29.345Z,14.90
2023-03-01T04:27:31.708Z,14.27
2023-03-01T04:28:37.624Z,14.63
2023-03-01T04:29:40.384Z,13.82
2023-03-01T04:30:42.614Z,15.30
2023-03-01T04:31:49.231Z,15.23
2023-03-01T04:32:51.519Z,14.10
2023-03-01T04:33:58.760Z,14.55
2023-03-01T04:35:01.644Z,13.82
2023-03-01T04:36:06.490Z,14.40
2023-03-01T04:37:12.410Z,14.15
2023-03-01T04:38:14.585Z,14.30
2023-03-01T04:39:17.547Z,13.50
2023-03-01T04:40:19.871Z,13.85
2023-03-01T04:41:23.969Z,13.27
2023-03-01T04:42:26.234Z,14.40
2023-03-01T04:43:28.494Z,14.32
2023-03-01T04:44:31.974Z,14.35
2023-03-01T04:45:35.531Z,15.18
2023-03-01T04:46:38.119Z,14.80
2023-03-01T04:47:41.918Z,14.68
2023-03-01T04:48:46.189Z,14.43
2023-03-01T04:49:48.366Z,13.82
2023-03-01T04:50:50.826Z,14.13
2023-03-01T04:51:53.042Z,14.13
2023-03-01T04:53:01.040Z,14.43
2023-03-01T04:54:03.303Z,14.48
2023-03-01T04:55:07.130Z,14.20
2023-03-01T04:56:09.736Z,14.10
2023-03-01T04:57:11.944Z,14.73
2023-03-01T04:58:14.153Z,14.75
2023-03-01T04:59:16.782Z,13.90
2023-03-01T05:00:39.365Z,13.73
2023-03-01T05:01:43.986Z,13.77
2023-03-01T05:02:55.545Z,13.52
2023-03-01T05:04:04.279Z,14.00
2023-03-01T05:05:06.967Z,14.07
2023-03-01T05:06:09.206Z,13.65
2023-03-01T05:07:14.128Z,14.38
2023-03-01T05:08:19.793Z,13.68
2023-03-01T05:09:23.229Z,13.88
2023-03-01T05:10:26.983Z,13.23
2023-03-01T05:11:32.945Z,14.10
2023-03-01T05:12:35.198Z,14.02
2023-03-01T05:13:39.084Z,13.93
2023-03-01T05:14:41.900Z,14.20
2023-03-01T05:15:44.118Z,13.80
2023-03-01T05:16:46.339Z,13.68
2023-03-01T05:17:49.955Z,14.38
2023-03-01T05:18:52.095Z,13.50
2023-03-01T05:19:56.646Z,14.30
2023-03-01T05:21:11.741Z,14.63
2023-03-01T05:22:13.889Z,14.20
2023-03-01T05:23:16.050Z,14.02
2023-03-01T05:24:18.258Z,14.65
2023-03-01T05:25:22.520Z,14.10
2023-03-01T05:26:29.714Z,14.68
2023-03-01T05:27:32.189Z,14.00
2023-03-01T05:28:34.895Z,13.93
2023-03-01T05:29:37.438Z,13.80
2023-03-01T05:30:40.198Z,13.98
2023-03-01T05:31:42.373Z,14.10
2023-03-01T05:32:46.944Z,14.73
2023-03-01T05:33:49.128Z,14.25
2023-03-01T05:34:53.305Z,13.98
2023-03-01T05:35:55.516Z,14.20
2023-03-01T05:36:58.365Z,14.60
2023-03-01T05:38:00.608Z,13.80
2023-03-01T05:39:03.476Z,14.23
2023-03-01T05:40:06.650Z,13.70
2023-03-01T05:41:16.001Z,14.70
2023-03-01T05:42:18.186Z,14.63
2023-03-01T05:43:20.380Z,14.30
2023-03-01T05:44:23.008Z,14.25
2023-03-01T05:45:28.068Z,14.30
2023-03-01T05:46:30.869Z,14.43
2023-03-01T05:47:33.322Z,14.35
2023-03-01T05:48:36.670Z,14.00
2023-03-01T05:49:39.836Z,14.38
2023-03-01T05:50:44.425Z,14.43
2023-03-01T05:51:51.114Z,14.32
2023-03-01T05:52:59.449Z,14.15
2023-03-01T05:54:03.496Z,14.70
2023-03-01T05:55:06.594Z,14.20
2023-03-01T05:56:08.983Z,15.00
2023-03-01T05:57:11.542Z,14.63
2023-03-01T05:58:17.867Z,14.90
2023-03-01T05:59:20.482Z,13.90
2023-03-01T06:00:25.665Z,15.05
2023-03-01T06:01:28.086Z,15.18
2023-03-01T06:02:31.429Z,15.02
2023-03-01T06:03:33.933Z,15.05
2023-03-01T06:04:36.158Z,15.15
2023-03-01T06:05:38.506Z,14.73
2023-03-01T06:06:40.750Z,15.35
2023-03-01T06:07:43.177Z,15.20
2023-03-01T06:08:45.408Z,15.48
2023-03-01T06:09:47.667Z,15.73
2023-03-01T06:10:49.983Z,15.27
2023-03-01T06:11:52.289Z,15.63
2023-03-01T06:12:54.876Z,14.55
2023-03-01T06:13:57.200Z,15.45
2023-03-01T06:15:00.321Z,15.88
2023-03-01T06:16:05.916Z,15.00
2023-03-01T06:17:08.126Z,15.07
2023-03-01T06:18:10.998Z,14.77
2023-03-01T06:19:13.187Z,14.80
2023-03-01T06:20:19.018Z,14.88
2023-03-01T06:21:21.223Z,15.63
2023-03-01T06:22:23.480Z,14.82
2023-03-01T06:23:26.369Z,14.57
2023-03-01T06:24:29.872Z,15.30
2023-03-01T06:25:32.075Z,15.48
2023-03-01T06:26:35.360Z,14.93
2023-03-01T06:27:37.841Z,15.25
2023-03-01T06:28:40.022Z,15.38
2023-03-01T06:29:42.781Z,15.68
2023-03-01T06:30:45.414Z,14.63
2023-03-01T06:31:49.633Z,14.57
2023-03-01T06:32:52.550Z,14.73
2023-03-01T06:33:55.121Z,14.85
2023-03-01T06:34:57.345Z,15.55
2023-03-01T06:35:59.524Z,15.73
2023-03-01T06:37:06.241Z,15.90
2023-03-01T06:38:10.318Z,15.38
2023-03-01T06:39:12.547Z,15.63
2023-03-01T06:40:16.421Z,16.38
2023-03-01T06:41:18.670Z,17.45
2023-03-01T06:42:20.970Z,17.70
2023-03-01T06:43:25.784Z,17.23
2023-03-01T06:44:31.080Z,17.40
2023-03-01T06:45:33.538Z,16.75
2023-03-01T06:46:35.818Z,16.75
2023-03-01T06:47:39.190Z,18.00
2023-03-01T06:48:41.948Z,17.20
2023-03-01T06:49:44.114Z,17.05
2023-03-01T06:50:46.291Z,16.92
2023-03-01T06:51:48.466Z,17.85
2023-03-01T06:52:56.815Z,17.77
2023-03-01T06:54:01.314Z,18.05
2023-03-01T06:55:06.203Z,17.15
2023-03-01T06:56:08.517Z,16.02
2023-03-01T06:57:10.687Z,16.70
2023-03-01T06:58:14.269Z,16.10
2023-03-01T06:59:17.659Z,16.20
2023-03-01T07:00:21.323Z,15.90
2023-03-01T07:01:23.905Z,15.80
2023-03-01T07:02:26.137Z,15.90
2023-03-01T07:03:28.608Z,16.65
2023-03-01T07:04:31.700Z,15.93
2023-03-01T07:05:34.530Z,15.32
2023-03-01T07:06:36.799Z,16.63
2023-03-01T07:07:39.551Z,16.60
2023-03-01T07:08:41.800Z,16.27
2023-03-01T07:09:44.037Z,16.70
2023-03-01T07:10:46.362Z,16.33
2023-03-01T07:11:48.871Z,16.73
2023-03-01T07:12:51.076Z,17.30
2023-03-01T07:13:53.277Z,17.50
2023-03-01T07:14:55.436Z,17.77
2023-03-01T07:15:57.613Z,16.53
2023-03-01T07:17:00.267Z,16.80
2023-03-01T07:18:02.956Z,16.27
2023-03-01T07:19:06.408Z,17.03
2023-03-01T07:20:09.449Z,16.57
2023-03-01T07:21:14.066Z,16.77
2023-03-01T07:22:16.282Z,15.50
2023-03-01T07:23:19.868Z,16.53
2023-03-01T07:24:22.115Z,16.10
2023-03-01T07:25:24.340Z,16.50
2023-03-01T07:26:26.627Z,16.97
2023-03-01T07:27:28.893Z,16.27
2023-03-01T07:28:31.923Z,16.53
2023-03-01T07:29:34.310Z,17.03
2023-03-01T07:30:36.541Z,16.63
2023-03-01T07:31:38.856Z,16.90
2023-03-01T07:32:41.167Z,17.07
2023-03-01T07:33:43.375Z,17.17
2023-03-01T07:34:45.691Z,16.47
2023-03-01T07:35:48.959Z,15.93
2023-03-01T07:36:52.011Z,16.47
2023-03-01T07:37:57.506Z,15.70
2023-03-01T07:38:59.817Z,16.40
2023-03-01T07:40:02.027Z,15.97
2023-03-01T07:41:04.929Z,16.27
2023-03-01T07:42:07.109Z,16.50
2023-03-01T07:43:09.317Z,16.00
2023-03-01T07:44:11.915Z,15.73
2023-03-01T07:45:14.650Z,15.77
2023-03-01T07:46:17.290Z,16.00
2023-03-01T07:47:19.472Z,15.40
2023-03-01T07:48:21.754Z,16.77
2023-03-01T07:49:24.046Z,16.20
2023-03-01T07:50:26.260Z,16.27
2023-03-01T07:51:28.411Z,15.33
2023-03-01T07:52:31.861Z,15.40
2023-03-01T07:53:35.275Z,16.23
2023-03-01T07:54:37.528Z,16.90
2023-03-01T07:55:39.707Z,16.40
2023-03-01T07:56:41.907Z,15.40
2023-03-01T07:57:44.345Z,15.97
2023-03-01T07:58:48.697Z,17.07
2023-03-01T07:59:51.950Z,16.17
2023-03-01T08:00:55.095Z,15.77
2023-03-01T08:01:57.971Z,16.53
2023-03-01T08:03:01.957Z,16.53
2023-03-01T08:04:05.847Z,16.43
2023-03-01T08:05:08.457Z,16.40
2023-03-01T08:06:12.896Z,16.80
2023-03-01T08:07:15.452Z,16.07
2023-03-01T08:08:19.521Z,16.30
2023-03-01T08:09:23.067Z,16.27
2023-03-01T08:10:25.380Z,17.13
2023-03-01T08:11:30.726Z,17.70
2023-03-01T08:12:33.350Z,17.23
2023-03-01T08:13:36.996Z,16.63
2023-03-01T08:14:41.185Z,16.87
2023-03-01T08:15:45.453Z,16.27
2023-03-01T08:16:52.826Z,16.97
2023-03-01T08:17:56.281Z,16.87
2023-03-01T08:19:01.709Z,17.07
2023-03-01T08:20:07.519Z,16.77
2023-03-01T08:21:14.407Z,17.47
2023-03-01T08:22:16.955Z,17.53
2023-03-01T08:23:19.176Z,16.73
2023-03-01T08:24:24.036Z,16.17
2023-03-01T08:25:26.255Z,17.27
2023-03-01T08:26:29.487Z,17.17
2023-03-01T08:27:33.371Z,17.10
2023-03-01T08:28:37.166Z,15.90
2023-03-01T08:29:39.277Z,16.70
2023-03-01T08:30:41.482Z,16.67
2023-03-01T08:31:44.185Z,16.73
2023-03-01T08:32:46.573Z,17.00
2023-03-01T08:33:57.043Z,17.03
2023-03-01T08:34:59.344Z,15.97
2023-03-01T08:36:07.971Z,16.13
2023-03-01T08:37:10.887Z,16.73
2023-03-01T08:38:13.102Z,16.83
2023-03-01T08:39:17.781Z,16.57
2023-03-01T08:40:20.023Z,17.10
2023-03-01T08:41:23.889Z,17.67
2023-03-01T08:42:26.102Z,17.87
2023-03-01T08:43:28.446Z,16.77
2023-03-01T08:44:30.663Z,18.27
2023-03-01T08:45:32.964Z,16.87
2023-03-01T08:46:38.657Z,16.93
2023-03-01T08:47:40.908Z,17.17
2023-03-01T08:48:44.343Z,16.80
2023-03-01T08:49:46.509Z,16.57
2023-03-01T08:50:48.719Z,16.27
2023-03-01T08:51:50.917Z,17.20
2023-03-01T08:52:53.070Z,17.27
2023-03-01T08:53:55.251Z,17.17
2023-03-01T08:54:57.966Z,17.83
2023-03-01T08:56:04.220Z,17.50
2023-03-01T08:57:07.947Z,17.17
2023-03-01T08:58:10.121Z,17.10
2023-03-01T08:59:13.460Z,16.80
2023-03-01T09:00:16.120Z,17.17
2023-03-01T09:01:21.175Z,17.33
2023-03-01T09:02:23.793Z,17.67
2023-03-01T09:03:28.383Z,17.23
2023-03-01T09:04:32.332Z,16.80
2023-03-01T09:05:35.395Z,17.77
2023-03-01T09:06:37.691Z,17.83
2023-03-01T09:07:39.918Z,17.10
2023-03-01T09:08:44.769Z,17.60
2023-03-01T09:09:49.444Z,17.37
2023-03-01T09:10:51.716Z,17.43
2023-03-01T09:11:53.929Z,18.30
2023-03-01T09:12:56.100Z,17.70
2023-03-01T09:13:58.342Z,17.57
2023-03-01T09:15:00.639Z,18.07
2023-03-01T09:16:05.644Z,17.80
2023-03-01T09:17:07.925Z,17.33
2023-03-01T09:18:10.360Z,16.97
2023-03-01T09:19:12.652Z,17.67
2023-03-01T09:20:14.964Z,17.83
2023-03-01T09:21:39.158Z,18.13
2023-03-01T09:22:42.317Z,17.97
2023-03-01T09:23:48.740Z,18.17
2023-03-01T09:24:51.142Z,17.90
2023-03-01T09:25:53.912Z,17.77
2023-03-01T09:26:57.279Z,17.00
2023-03-01T09:27:59.407Z,18.30
2023-03-01T09:29:01.627Z,17.97
2023-03-01T09:30:04.149Z,18.57
2023-03-01T09:31:06.837Z,18.33
2023-03-01T09:32:09.454Z,17.90
2023-03-01T09:33:15.645Z,18.03
2023-03-01T09:34:24.188Z,17.00
2023-03-01T09:35:26.384Z,18.40
2023-03-01T09:36:28.801Z,18.17
2023-03-01T09:37:34.353Z,18.27
2023-03-01T09:38:36.903Z,18.37
2023-03-01T09:39:39.045Z,18.33
2023-03-01T09:40:47.321Z,17.67
2023-03-01T09:42:05.607Z,17.30
2023-03-01T09:43:18.627Z,18.07
2023-03-01T09:44:27.316Z,17.77
2023-03-01T09:45:35.339Z,17.87
2023-03-01T09:46:43.426Z,17.80
2023-03-01T09:47:47.592Z,18.17
2023-03-01T09:48:58.474Z,17.77
2023-03-01T09:50:03.673Z,17.87
2023-03-01T09:51:13.771Z,18.43
2023-03-01T09:52:33.065Z,17.53
2023-03-01T09:53:36.333Z,18.47
2023-03-01T09:54:38.703Z,18.57
2023-03-01T09:55:46.941Z,18.73
2023-03-01T09:57:02.174Z,17.43
2023-03-01T09:58:28.842Z,18.47
2023-03-01T09:59:53.968Z,17.50
2023-03-01T10:00:59.986Z,18.87
2023-03-01T10:02:22.742Z,17.90
2023-03-01T10:03:39.455Z,18.10
2023-03-01T10:04:48.358Z,18.10
2023-03-01T10:06:35.051Z,17.97
2023-03-01T10:07:49.071Z,18.77
2023-03-01T10:08:58.901Z,17.80
2023-03-01T10:10:02.294Z,18.27
2023-03-01T10:11:13.881Z,17.33
2023-03-01T10:12:28.844Z,18.60
2023-03-01T10:13:45.989Z,17.67
2023-03-01T10:14:58.916Z,18.30
2023-03-01T10:16:15.519Z,18.10
2023-03-01T10:17:35.372Z,17.87
2023-03-01T10:18:39.533Z,18.33
2023-03-01T10:19:47.125Z,18.17
2023-03-01T10:21:02.914Z,18.03
2023-03-01T10:22:30.724Z,18.13
2023-03-01T10:23:36.648Z,18.17
2023-03-01T10:24:38.917Z,18.20
2023-03-01T10:26:06.137Z,18.80
2023-03-01T10:27:32.082Z,17.80
2023-03-01T10:28:49.535Z,18.60
2023-03-01T10:30:22.212Z,18.17
2023-03-01T10:31:31.052Z,18.50
2023-03-01T10:32:33.827Z,18.13
2023-03-01T10:33:40.672Z,17.47
2023-03-01T10:34:42.930Z,16.93
2023-03-01T10:35:45.347Z,18.27
2023-03-01T10:36:58.362Z,18.23
2023-03-01T10:38:07.884Z,17.60
2023-03-01T10:39:17.591Z,17.50
2023-03-01T10:40:20.083Z,18.07
2023-03-01T10:41:27.156Z,18.23
2023-03-01T10:42:32.983Z,17.90
2023-03-01T10:43:56.990Z,17.97
2023-03-01T10:45:15.172Z,17.37
2023-03-01T10:46:33.361Z,17.70
2023-03-01T10:47:36.900Z,18.07
2023-03-01T10:48:39.042Z,17.50
2023-03-01T10:49:53.731Z,17.60
2023-03-01T10:50:58.604Z,17.30
2023-03-01T10:52:18.868Z,16.83
2023-03-01T10:53:35.289Z,17.33
2023-03-01T10:54:37.681Z,16.73
2023-03-01T10:55:41.305Z,17.20
2023-03-01T10:56:57.080Z,16.07
2023-03-01T10:58:11.780Z,16.53
2023-03-01T10:59:28.049Z,16.67
2023-03-01T11:00:30.310Z,16.27
2023-03-01T11:01:36.766Z,17.07
2023-03-01T11:02:39.105Z,17.03
2023-03-01T11:03:41.479Z,16.83
2023-03-01T11:05:03.271Z,17.03
2023-03-01T11:06:22.145Z,16.40
2023-03-01T11:07:24.308Z,17.40
2023-03-01T11:08:41.439Z,15.77
2023-03-01T11:09:44.200Z,16.03
2023-03-01T11:10:46.355Z,16.47
2023-03-01T11:12:01.789Z,16.97
2023-03-01T11:13:15.569Z,16.17
2023-03-01T11:14:29.558Z,16.73
2023-03-01T11:15:32.033Z,16.87
2023-03-01T11:16:37.456Z,16.77
2023-03-01T11:17:54.482Z,16.67
2023-03-01T11:19:19.056Z,16.47
2023-03-01T11:20:31.745Z,16.07
2023-03-01T11:21:35.933Z,17.00
2023-03-01T11:22:46.658Z,16.97
2023-03-01T11:23:51.103Z,16.67
2023-03-01T11:25:08.911Z,16.17
2023-03-01T11:26:14.188Z,16.50
2023-03-01T11:27:29.546Z,16.23
2023-03-01T11:28:34.055Z,16.23
2023-03-01T11:29:49.174Z,15.20
2023-03-01T11:31:08.729Z,14.63
2023-03-01T11:32:15.292Z,13.77
2023-03-01T11:33:43.852Z,13.13
2023-03-01T11:34:54.499Z,13.57
2023-03-01T11:36:05.494Z,13.07
2023-03-01T11:37:25.933Z,13.43
2023-03-01T11:38:32.089Z,13.10
2023-03-01T11:39:43.570Z,13.03
2023-03-01T11:40:56.100Z,13.23
2023-03-01T11:42:19.641Z,12.23
2023-03-01T11:43:32.906Z,11.73
2023-03-01T11:44:39.127Z,11.87
2023-03-01T11:46:11.922Z,11.63
2023-03-01T11:47:45.327Z,11.33
2023-03-01T11:49:27.458Z,11.97
2023-03-01T11:50:42.476Z,12.07
2023-03-01T11:51:54.908Z,12.70
2023-03-01T11:53:29.086Z,12.33
2023-03-01T11:54:57.379Z,12.63
2023-03-01T11:56:25.250Z,12.70
2023-03-01T11:57:42.731Z,12.80
2023-03-01T11:59:24.533Z,12.10
2023-03-01T12:01:05.299Z,12.50
2023-03-01T12:02:47.662Z,12.00
2023-03-01T12:04:08.771Z,11.77
2023-03-01T12:05:31.645Z,11.97
2023-03-01T12:07:06.313Z,11.20
2023-03-01T12:08:55.800Z,11.63
2023-03-01T12:10:23.059Z,10.63
2023-03-01T12:11:46.005Z,11.00
2023-03-01T12:13:38.687Z,10.87
2023-03-01T12:15:00.479Z,10.37
2023-03-01T12:16:17.611Z,11.13
2023-03-01T12:17:45.452Z,11.00
2023-03-01T12:18:50.297Z,11.03
2023-03-01T12:20:23.445Z,10.90
2023-03-01T12:22:00.457Z,11.33
2023-03-01T12:23:27.944Z,11.50
2023-03-01T12:24:57.848Z,11.47
2023-03-01T12:26:06.792Z,11.10
2023-03-01T12:27:40.217Z,12.10
2023-03-01T12:28:53.158Z,11.93
2023-03-01T12:30:10.782Z,11.23
2023-03-01T12:31:35.929Z,11.67
2023-03-01T12:32:56.830Z,11.80
2023-03-01T12:34:20.889Z,12.83
2023-03-01T12:35:32.748Z,11.97
2023-03-01T12:37:03.731Z,12.13
2023-03-01T12:38:27.012Z,11.47
2023-03-01T12:40:05.846Z,11.63
2023-03-01T12:41:44.860Z,11.33
2023-03-01T12:43:15.443Z,10.97
2023-03-01T12:44:44.870Z,11.00
2023-03-01T12:46:20.474Z,11.10
2023-03-01T12:47:45.965Z,11.37
2023-03-01T12:49:05.659Z,11.03
2023-03-01T12:50:20.943Z,12.07
2023-03-01T12:51:30.298Z,11.60
2023-03-01T12:52:50.630Z,11.10
2023-03-01T12:53:57.156Z,11.07
2023-03-01T12:55:04.058Z,11.87
2023-03-01T12:56:22.605Z,12.30
2023-03-01T12:57:39.332Z,11.57
2023-03-01T12:59:05.799Z,11.80
2023-03-01T13:00:29.413Z,11.60
2023-03-01T13:01:50.223Z,11.53
2023-03-01T13:03:21.996Z,12.27
2023-03-01T13:04:26.920Z,11.07
2023-03-01T13:06:09.484Z,11.37
2023-03-01T13:07:42.489Z,10.70
2023-03-01T13:09:13.697Z,11.20
2023-03-01T13:10:22.244Z,10.47
2023-03-01T13:11:25.126Z,10.90
2023-03-01T13:12:50.586Z,11.27
2023-03-01T13:14:12.908Z,11.43
2023-03-01T13:15:24.241Z,11.27
2023-03-01T13:16:30.540Z,11.00
2023-03-01T13:17:43.003Z,11.40
2023-03-01T13:18:46.493Z,11.37
2023-03-01T13:19:59.302Z,11.47
2023-03-01T13:21:02.843Z,10.67
2023-03-01T13:22:29.189Z,10.77
2023-03-01T13:23:38.523Z,10.50
2023-03-01T13:24:42.582Z,11.27
2023-03-01T13:26:00.091Z,11.50
2023-03-01T13:27:09.368Z,11.13
2023-03-01T13:28:32.976Z,11.27
2023-03-01T13:29:47.495Z,10.97
2023-03-01T13:30:49.728Z,11.30
2023-03-01T13:31:51.910Z,11.20
2023-03-01T13:33:29.245Z,12.57
2023-03-01T13:34:42.518Z,11.83
2023-03-01T13:35:45.719Z,11.87
2023-03-01T13:36:50.667Z,11.20
2023-03-01T13:37:52.938Z,11.07
2023-03-01T13:38:55.123Z,11.10
2023-03-01T13:40:05.877Z,11.50
2023-03-01T13:41:09.232Z,11.10
2023-03-01T13:42:59.410Z,10.47
2023-03-01T13:44:27.934Z,10.90
2023-03-01T13:45:44.308Z,12.03
2023-03-01T13:46:47.429Z,10.80
2023-03-01T13:48:00.053Z,11.20
2023-03-01T13:49:02.378Z,11.03
2023-03-01T13:50:05.412Z,11.27
2023-03-01T13:51:13.006Z,10.27
2023-03-01T13:52:40.529Z,11.53
2023-03-01T13:53:48.425Z,10.60
2023-03-01T13:54:51.366Z,11.00
2023-03-01T13:56:01.797Z,10.80
2023-03-01T13:57:04.430Z,11.10
2023-03-01T13:58:16.795Z,10.90
2023-03-01T13:59:22.207Z,10.73
2023-03-01T14:00:37.095Z,10.60
2023-03-01T14:01:40.213Z,10.00
2023-03-01T14:02:45.004Z,10.77
2023-03-01T14:03:47.570Z,10.73
2023-03-01T14:05:01.373Z,11.43
2023-03-01T14:06:20.841Z,10.90
2023-03-01T14:07:30.554Z,10.67
2023-03-01T14:08:33.203Z,10.67
2023-03-01T14:09:41.877Z,10.60
2023-03-01T14:10:55.213Z,10.60
2023-03-01T14:12:10.556Z,10.90
2023-03-01T14:13:50.878Z,10.07
2023-03-01T14:15:21.352Z,9.90
2023-03-01T14:16:51.187Z,9.77
2023-03-01T14:18:05.466Z,10.17
2023-03-01T14:19:32.585Z,10.87
2023-03-01T14:20:42.394Z,10.53
2023-03-01T14:21:44.737Z,9.73
2023-03-01T14:22:48.743Z,10.13
2023-03-01T14:23:50.868Z,9.77
2023-03-01T14:24:57.269Z,9.90
2023-03-01T14:25:59.470Z,10.43
2023-03-01T14:27:04.616Z,9.77
2023-03-01T14:28:29.623Z,10.07
2023-03-01T14:29:38.014Z,9.40
2023-03-01T14:30:44.416Z,9.63
2023-03-01T14:31:53.451Z,9.67